sensor_id;sensor_type;location;lat;lon;timestamp;P1;durP1;ratioP1;P2;durP2;ratioP2
1779;SDS011;10019;46.670;14.260;2022-08-03T00:00:44;5.17;;;4.67;;
1779;SDS011;10019;46.670;14.260;2022-08-03T00:03:16;6.10;;;5.17;;
1779;SDS011;10019;46.670;14.260;2022-08-03T00:05:48;5.87;;;5.27;;
1779;SDS011;10019;46.670;14.260;2022-08-03T00:08:19;5.53;;;5.03;;
1779;SDS011;10019;46.670;14.260;2022-08-03T00:10:51;5.23;;;4.83;;
1779;SDS011;10019;46.670;14.260;2022-08-03T00:13:25;5.43;;;5.03;;
1779;SDS011;10019;46.670;14.260;2022-08-03T00:15:57;7.93;;;5.77;;
1779;SDS011;10019;46.670;14.260;2022-08-03T00:18:28;5.70;;;5.20;;
1779;SDS011;10019;46.670;14.260;2022-08-03T00:21:00;5.50;;;4.87;;
1779;SDS011;10019;46.670;14.260;2022-08-03T00:23:32;5.60;;;5.03;;
1779;SDS011;10019;46.670;14.260;2022-08-03T00:26:04;5.50;;;5.00;;
1779;SDS011;10019;46.670;14.260;2022-08-03T00:28:37;7.67;;;5.33;;
1779;SDS011;10019;46.670;14.260;2022-08-03T00:31:09;6.53;;;5.83;;
1779;SDS011;10019;46.670;14.260;2022-08-03T00:33:40;5.33;;;4.90;;
1779;SDS011;10019;46.670;14.260;2022-08-03T00:36:12;5.40;;;4.90;;
1779;SDS011;10019;46.670;14.260;2022-08-03T00:38:44;5.87;;;5.37;;
1779;SDS011;10019;46.670;14.260;2022-08-03T00:41:15;6.73;;;4.50;;
1779;SDS011;10019;46.670;14.260;2022-08-03T00:43:48;5.80;;;5.30;;
1779;SDS011;10019;46.670;14.260;2022-08-03T00:46:20;5.67;;;5.23;;
1779;SDS011;10019;46.670;14.260;2022-08-03T00:48:52;6.00;;;5.40;;
1779;SDS011;10019;46.670;14.260;2022-08-03T00:51:24;5.90;;;5.40;;
1779;SDS011;10019;46.670;14.260;2022-08-03T00:53:56;5.70;;;5.20;;
1779;SDS011;10019;46.670;14.260;2022-08-03T00:56:27;5.63;;;5.13;;
1779;SDS011;10019;46.670;14.260;2022-08-03T00:59:00;6.17;;;5.60;;
1779;SDS011;10019;46.670;14.260;2022-08-03T01:01:33;5.80;;;5.30;;
1779;SDS011;10019;46.670;14.260;2022-08-03T01:04:05;5.60;;;5.00;;
1779;SDS011;10019;46.670;14.260;2022-08-03T01:06:40;6.33;;;5.20;;
1779;SDS011;10019;46.670;14.260;2022-08-03T01:09:17;6.87;;;6.27;;
1779;SDS011;10019;46.670;14.260;2022-08-03T01:11:53;7.20;;;5.70;;
1779;SDS011;10019;46.670;14.260;2022-08-03T01:14:33;5.70;;;5.07;;
1779;SDS011;10019;46.670;14.260;2022-08-03T01:17:09;5.90;;;4.97;;
1779;SDS011;10019;46.670;14.260;2022-08-03T01:19:47;5.20;;;4.80;;
1779;SDS011;10019;46.670;14.260;2022-08-03T01:22:36;5.73;;;5.23;;
1779;SDS011;10019;46.670;14.260;2022-08-03T01:25:18;5.90;;;5.30;;
1779;SDS011;10019;46.670;14.260;2022-08-03T01:28:00;6.10;;;5.50;;
1779;SDS011;10019;46.670;14.260;2022-08-03T01:30:40;7.30;;;5.43;;
1779;SDS011;10019;46.670;14.260;2022-08-03T01:33:14;5.47;;;4.90;;
1779;SDS011;10019;46.670;14.260;2022-08-03T01:35:49;9.40;;;5.27;;
1779;SDS011;10019;46.670;14.260;2022-08-03T01:38:25;6.43;;;5.83;;
1779;SDS011;10019;46.670;14.260;2022-08-03T01:40:58;6.50;;;5.90;;
1779;SDS011;10019;46.670;14.260;2022-08-03T01:43:33;6.03;;;5.53;;
1779;SDS011;10019;46.670;14.260;2022-08-03T01:46:07;5.80;;;5.20;;
1779;SDS011;10019;46.670;14.260;2022-08-03T01:48:39;6.40;;;5.80;;
1779;SDS011;10019;46.670;14.260;2022-08-03T01:51:13;5.97;;;5.13;;
1779;SDS011;10019;46.670;14.260;2022-08-03T01:53:45;6.23;;;5.73;;
1779;SDS011;10019;46.670;14.260;2022-08-03T01:56:20;5.87;;;5.27;;
1779;SDS011;10019;46.670;14.260;2022-08-03T01:58:53;5.80;;;5.20;;
1779;SDS011;10019;46.670;14.260;2022-08-03T02:01:26;8.03;;;5.60;;
1779;SDS011;10019;46.670;14.260;2022-08-03T02:03:58;6.97;;;6.37;;
1779;SDS011;10019;46.670;14.260;2022-08-03T02:06:31;6.80;;;5.20;;
1779;SDS011;10019;46.670;14.260;2022-08-03T02:09:04;6.37;;;5.23;;
1779;SDS011;10019;46.670;14.260;2022-08-03T02:11:36;5.60;;;5.10;;
1779;SDS011;10019;46.670;14.260;2022-08-03T02:14:09;6.10;;;5.60;;
1779;SDS011;10019;46.670;14.260;2022-08-03T02:16:42;6.30;;;5.33;;
1779;SDS011;10019;46.670;14.260;2022-08-03T02:19:15;6.07;;;5.47;;
1779;SDS011;10019;46.670;14.260;2022-08-03T02:21:47;5.80;;;5.20;;
1779;SDS011;10019;46.670;14.260;2022-08-03T02:24:19;5.77;;;5.20;;
1779;SDS011;10019;46.670;14.260;2022-08-03T02:26:51;6.30;;;5.67;;
1779;SDS011;10019;46.670;14.260;2022-08-03T02:29:25;6.10;;;5.50;;
1779;SDS011;10019;46.670;14.260;2022-08-03T02:32:00;6.87;;;6.20;;
1779;SDS011;10019;46.670;14.260;2022-08-03T02:34:33;6.70;;;5.90;;
1779;SDS011;10019;46.670;14.260;2022-08-03T02:37:05;5.73;;;5.23;;
1779;SDS011;10019;46.670;14.260;2022-08-03T02:39:38;8.43;;;5.77;;
1779;SDS011;10019;46.670;14.260;2022-08-03T02:42:11;5.80;;;5.30;;
1779;SDS011;10019;46.670;14.260;2022-08-03T02:44:44;12.23;;;5.57;;
1779;SDS011;10019;46.670;14.260;2022-08-03T02:47:19;6.83;;;5.20;;
1779;SDS011;10019;46.670;14.260;2022-08-03T02:49:51;7.00;;;5.93;;
1779;SDS011;10019;46.670;14.260;2022-08-03T02:52:26;6.03;;;5.43;;
1779;SDS011;10019;46.670;14.260;2022-08-03T02:54:59;6.10;;;5.53;;
1779;SDS011;10019;46.670;14.260;2022-08-03T02:57:31;7.70;;;5.77;;
1779;SDS011;10019;46.670;14.260;2022-08-03T03:00:06;7.73;;;5.97;;
1779;SDS011;10019;46.670;14.260;2022-08-03T03:02:40;9.40;;;6.60;;
1779;SDS011;10019;46.670;14.260;2022-08-03T03:05:12;6.80;;;5.80;;
1779;SDS011;10019;46.670;14.260;2022-08-03T03:07:45;6.63;;;6.10;;
1779;SDS011;10019;46.670;14.260;2022-08-03T03:10:17;6.83;;;6.23;;
1779;SDS011;10019;46.670;14.260;2022-08-03T03:12:49;6.40;;;5.80;;
1779;SDS011;10019;46.670;14.260;2022-08-03T03:15:22;6.70;;;6.07;;
1779;SDS011;10019;46.670;14.260;2022-08-03T03:17:55;6.67;;;5.97;;
1779;SDS011;10019;46.670;14.260;2022-08-03T03:20:27;8.07;;;5.93;;
1779;SDS011;10019;46.670;14.260;2022-08-03T03:23:01;6.20;;;5.70;;
1779;SDS011;10019;46.670;14.260;2022-08-03T03:25:34;6.30;;;5.80;;
1779;SDS011;10019;46.670;14.260;2022-08-03T03:28:06;6.50;;;5.90;;
1779;SDS011;10019;46.670;14.260;2022-08-03T03:30:37;10.13;;;6.30;;
1779;SDS011;10019;46.670;14.260;2022-08-03T03:33:11;6.50;;;5.90;;
1779;SDS011;10019;46.670;14.260;2022-08-03T03:35:42;5.97;;;5.47;;
1779;SDS011;10019;46.670;14.260;2022-08-03T03:38:16;6.60;;;5.30;;
1779;SDS011;10019;46.670;14.260;2022-08-03T03:40:47;6.23;;;5.67;;
1779;SDS011;10019;46.670;14.260;2022-08-03T03:43:19;6.20;;;5.70;;
1779;SDS011;10019;46.670;14.260;2022-08-03T03:45:53;6.60;;;5.90;;
1779;SDS011;10019;46.670;14.260;2022-08-03T03:48:26;6.40;;;5.80;;
1779;SDS011;10019;46.670;14.260;2022-08-03T03:50:58;6.17;;;5.63;;
1779;SDS011;10019;46.670;14.260;2022-08-03T03:53:30;6.63;;;6.00;;
1779;SDS011;10019;46.670;14.260;2022-08-03T03:56:02;6.70;;;6.00;;
1779;SDS011;10019;46.670;14.260;2022-08-03T03:58:34;5.90;;;5.40;;
1779;SDS011;10019;46.670;14.260;2022-08-03T04:01:06;7.00;;;6.30;;
1779;SDS011;10019;46.670;14.260;2022-08-03T04:03:40;6.97;;;5.50;;
1779;SDS011;10019;46.670;14.260;2022-08-03T04:06:11;8.53;;;5.87;;
1779;SDS011;10019;46.670;14.260;2022-08-03T04:09:01;7.07;;;5.73;;
1779;SDS011;10019;46.670;14.260;2022-08-03T04:11:53;5.70;;;5.20;;
1779;SDS011;10019;46.670;14.260;2022-08-03T04:14:25;5.33;;;4.90;;
1779;SDS011;10019;46.670;14.260;2022-08-03T04:17:00;6.33;;;5.73;;
1779;SDS011;10019;46.670;14.260;2022-08-03T04:19:35;7.03;;;5.47;;
1779;SDS011;10019;46.670;14.260;2022-08-03T04:22:11;6.93;;;6.23;;
1779;SDS011;10019;46.670;14.260;2022-08-03T04:24:45;6.83;;;5.87;;
1779;SDS011;10019;46.670;14.260;2022-08-03T04:27:19;6.73;;;5.93;;
1779;SDS011;10019;46.670;14.260;2022-08-03T04:29:52;5.70;;;5.20;;
1779;SDS011;10019;46.670;14.260;2022-08-03T04:32:25;6.13;;;5.63;;
1779;SDS011;10019;46.670;14.260;2022-08-03T04:34:59;7.53;;;6.83;;
1779;SDS011;10019;46.670;14.260;2022-08-03T04:37:32;6.33;;;5.73;;
1779;SDS011;10019;46.670;14.260;2022-08-03T04:40:07;5.83;;;5.23;;
1779;SDS011;10019;46.670;14.260;2022-08-03T04:42:41;6.70;;;5.43;;
1779;SDS011;10019;46.670;14.260;2022-08-03T04:45:13;9.70;;;5.80;;
1779;SDS011;10019;46.670;14.260;2022-08-03T04:47:46;7.23;;;6.30;;
1779;SDS011;10019;46.670;14.260;2022-08-03T04:50:19;6.43;;;5.77;;
1779;SDS011;10019;46.670;14.260;2022-08-03T04:52:51;6.63;;;6.03;;
1779;SDS011;10019;46.670;14.260;2022-08-03T04:55:26;6.83;;;6.17;;
1779;SDS011;10019;46.670;14.260;2022-08-03T04:57:58;8.30;;;6.47;;
1779;SDS011;10019;46.670;14.260;2022-08-03T05:00:30;6.73;;;6.03;;
1779;SDS011;10019;46.670;14.260;2022-08-03T05:03:02;8.23;;;6.10;;
1779;SDS011;10019;46.670;14.260;2022-08-03T05:05:35;6.73;;;5.80;;
1779;SDS011;10019;46.670;14.260;2022-08-03T05:08:07;7.17;;;6.57;;
1779;SDS011;10019;46.670;14.260;2022-08-03T05:10:38;6.43;;;5.83;;
1779;SDS011;10019;46.670;14.260;2022-08-03T05:13:10;6.57;;;5.97;;
1779;SDS011;10019;46.670;14.260;2022-08-03T05:15:43;7.03;;;6.17;;
1779;SDS011;10019;46.670;14.260;2022-08-03T05:18:15;8.00;;;7.30;;
1779;SDS011;10019;46.670;14.260;2022-08-03T05:20:48;7.03;;;6.33;;
1779;SDS011;10019;46.670;14.260;2022-08-03T05:23:20;7.17;;;6.47;;
1779;SDS011;10019;46.670;14.260;2022-08-03T05:25:51;6.80;;;6.10;;
1779;SDS011;10019;46.670;14.260;2022-08-03T05:28:23;7.27;;;6.57;;
1779;SDS011;10019;46.670;14.260;2022-08-03T05:30:55;6.87;;;6.27;;
1779;SDS011;10019;46.670;14.260;2022-08-03T05:33:27;9.70;;;6.07;;
1779;SDS011;10019;46.670;14.260;2022-08-03T05:36:00;7.03;;;6.33;;
1779;SDS011;10019;46.670;14.260;2022-08-03T05:38:32;6.67;;;6.10;;
1779;SDS011;10019;46.670;14.260;2022-08-03T05:41:03;7.80;;;6.37;;
1779;SDS011;10019;46.670;14.260;2022-08-03T05:43:35;7.47;;;6.63;;
1779;SDS011;10019;46.670;14.260;2022-08-03T05:46:07;6.73;;;6.13;;
1779;SDS011;10019;46.670;14.260;2022-08-03T05:48:39;6.77;;;6.13;;
1779;SDS011;10019;46.670;14.260;2022-08-03T05:51:12;7.10;;;6.50;;
1779;SDS011;10019;46.670;14.260;2022-08-03T05:53:43;6.87;;;6.07;;
1779;SDS011;10019;46.670;14.260;2022-08-03T05:56:15;7.33;;;6.63;;
1779;SDS011;10019;46.670;14.260;2022-08-03T05:58:47;7.20;;;6.53;;
1779;SDS011;10019;46.670;14.260;2022-08-03T06:01:19;6.47;;;5.87;;
1779;SDS011;10019;46.670;14.260;2022-08-03T06:03:52;7.10;;;6.40;;
1779;SDS011;10019;46.670;14.260;2022-08-03T06:06:25;6.33;;;5.83;;
1779;SDS011;10019;46.670;14.260;2022-08-03T06:08:56;6.90;;;6.30;;
1779;SDS011;10019;46.670;14.260;2022-08-03T06:11:28;7.03;;;6.40;;
1779;SDS011;10019;46.670;14.260;2022-08-03T06:14:00;6.47;;;5.97;;
1779;SDS011;10019;46.670;14.260;2022-08-03T06:16:32;6.60;;;6.00;;
1779;SDS011;10019;46.670;14.260;2022-08-03T06:19:04;6.63;;;5.90;;
1779;SDS011;10019;46.670;14.260;2022-08-03T06:21:37;6.63;;;5.77;;
1779;SDS011;10019;46.670;14.260;2022-08-03T06:24:09;6.17;;;5.57;;
1779;SDS011;10019;46.670;14.260;2022-08-03T06:26:41;8.03;;;6.13;;
1779;SDS011;10019;46.670;14.260;2022-08-03T06:29:12;6.40;;;5.90;;
1779;SDS011;10019;46.670;14.260;2022-08-03T06:31:44;6.10;;;5.60;;
1779;SDS011;10019;46.670;14.260;2022-08-03T06:34:16;8.17;;;7.00;;
1779;SDS011;10019;46.670;14.260;2022-08-03T06:36:49;7.03;;;6.43;;
1779;SDS011;10019;46.670;14.260;2022-08-03T06:39:21;6.83;;;6.30;;
1779;SDS011;10019;46.670;14.260;2022-08-03T06:41:53;6.07;;;5.47;;
1779;SDS011;10019;46.670;14.260;2022-08-03T06:44:25;6.70;;;6.10;;
1779;SDS011;10019;46.670;14.260;2022-08-03T06:46:56;6.67;;;6.07;;
1779;SDS011;10019;46.670;14.260;2022-08-03T06:49:28;7.13;;;6.43;;
1779;SDS011;10019;46.670;14.260;2022-08-03T06:52:01;7.23;;;6.63;;
1779;SDS011;10019;46.670;14.260;2022-08-03T06:54:34;6.67;;;6.13;;
1779;SDS011;10019;46.670;14.260;2022-08-03T06:57:06;6.67;;;6.07;;
1779;SDS011;10019;46.670;14.260;2022-08-03T06:59:40;6.90;;;6.30;;
1779;SDS011;10019;46.670;14.260;2022-08-03T07:02:12;6.73;;;6.13;;
1779;SDS011;10019;46.670;14.260;2022-08-03T07:04:43;6.03;;;5.40;;
1779;SDS011;10019;46.670;14.260;2022-08-03T07:07:17;7.47;;;6.20;;
1779;SDS011;10019;46.670;14.260;2022-08-03T07:09:49;9.43;;;7.10;;
1779;SDS011;10019;46.670;14.260;2022-08-03T07:12:21;6.57;;;5.73;;
1779;SDS011;10019;46.670;14.260;2022-08-03T07:14:53;7.20;;;6.50;;
1779;SDS011;10019;46.670;14.260;2022-08-03T07:17:25;7.00;;;6.40;;
1779;SDS011;10019;46.670;14.260;2022-08-03T07:19:57;7.03;;;6.43;;
1779;SDS011;10019;46.670;14.260;2022-08-03T07:22:30;6.60;;;5.93;;
1779;SDS011;10019;46.670;14.260;2022-08-03T07:25:02;6.60;;;6.07;;
1779;SDS011;10019;46.670;14.260;2022-08-03T07:27:34;7.07;;;6.37;;
1779;SDS011;10019;46.670;14.260;2022-08-03T07:30:07;6.63;;;6.03;;
1779;SDS011;10019;46.670;14.260;2022-08-03T07:32:40;7.13;;;6.53;;
1779;SDS011;10019;46.670;14.260;2022-08-03T07:35:12;7.90;;;6.00;;
1779;SDS011;10019;46.670;14.260;2022-08-03T07:37:45;7.10;;;6.47;;
1779;SDS011;10019;46.670;14.260;2022-08-03T07:40:16;6.57;;;5.93;;
1779;SDS011;10019;46.670;14.260;2022-08-03T07:42:48;7.10;;;6.40;;
1779;SDS011;10019;46.670;14.260;2022-08-03T07:45:20;7.17;;;6.13;;
1779;SDS011;10019;46.670;14.260;2022-08-03T07:47:53;6.17;;;5.57;;
1779;SDS011;10019;46.670;14.260;2022-08-03T07:50:25;7.87;;;6.27;;
1779;SDS011;10019;46.670;14.260;2022-08-03T07:52:58;6.20;;;5.70;;
1779;SDS011;10019;46.670;14.260;2022-08-03T07:55:30;6.43;;;5.83;;
1779;SDS011;10019;46.670;14.260;2022-08-03T07:58:02;6.07;;;5.50;;
1779;SDS011;10019;46.670;14.260;2022-08-03T08:00:35;6.03;;;5.53;;
1779;SDS011;10019;46.670;14.260;2022-08-03T08:03:07;6.67;;;6.10;;
1779;SDS011;10019;46.670;14.260;2022-08-03T08:05:39;6.67;;;6.07;;
1779;SDS011;10019;46.670;14.260;2022-08-03T08:08:12;6.90;;;5.80;;
1779;SDS011;10019;46.670;14.260;2022-08-03T08:10:44;6.77;;;6.17;;
1779;SDS011;10019;46.670;14.260;2022-08-03T08:13:15;6.23;;;5.73;;
1779;SDS011;10019;46.670;14.260;2022-08-03T08:15:47;6.40;;;5.90;;
1779;SDS011;10019;46.670;14.260;2022-08-03T08:18:19;6.50;;;5.93;;
1779;SDS011;10019;46.670;14.260;2022-08-03T08:20:51;6.00;;;5.50;;
1779;SDS011;10019;46.670;14.260;2022-08-03T08:23:24;6.50;;;5.90;;
1779;SDS011;10019;46.670;14.260;2022-08-03T08:25:55;6.40;;;5.90;;
1779;SDS011;10019;46.670;14.260;2022-08-03T08:28:27;6.00;;;5.50;;
1779;SDS011;10019;46.670;14.260;2022-08-03T08:30:59;6.03;;;5.53;;
1779;SDS011;10019;46.670;14.260;2022-08-03T08:33:31;6.33;;;5.77;;
1779;SDS011;10019;46.670;14.260;2022-08-03T08:36:04;6.43;;;5.80;;
1779;SDS011;10019;46.670;14.260;2022-08-03T08:38:37;6.20;;;5.60;;
1779;SDS011;10019;46.670;14.260;2022-08-03T08:41:12;5.80;;;5.30;;
1779;SDS011;10019;46.670;14.260;2022-08-03T08:43:44;6.53;;;6.03;;
1779;SDS011;10019;46.670;14.260;2022-08-03T08:46:16;5.90;;;5.40;;
1779;SDS011;10019;46.670;14.260;2022-08-03T08:48:48;6.23;;;5.70;;
1779;SDS011;10019;46.670;14.260;2022-08-03T08:51:21;5.83;;;5.33;;
1779;SDS011;10019;46.670;14.260;2022-08-03T08:54:00;6.03;;;5.43;;
1779;SDS011;10019;46.670;14.260;2022-08-03T08:56:33;5.90;;;5.40;;
1779;SDS011;10019;46.670;14.260;2022-08-03T08:59:06;5.70;;;5.30;;
1779;SDS011;10019;46.670;14.260;2022-08-03T09:01:37;5.57;;;5.07;;
1779;SDS011;10019;46.670;14.260;2022-08-03T09:04:09;5.80;;;5.30;;
1779;SDS011;10019;46.670;14.260;2022-08-03T09:06:41;6.50;;;6.00;;
1779;SDS011;10019;46.670;14.260;2022-08-03T09:09:14;5.83;;;5.33;;
1779;SDS011;10019;46.670;14.260;2022-08-03T09:11:46;6.30;;;5.57;;
1779;SDS011;10019;46.670;14.260;2022-08-03T09:14:18;5.30;;;4.90;;
1779;SDS011;10019;46.670;14.260;2022-08-03T09:16:56;7.47;;;5.70;;
1779;SDS011;10019;46.670;14.260;2022-08-03T09:19:32;6.37;;;5.87;;
1779;SDS011;10019;46.670;14.260;2022-08-03T09:22:08;5.90;;;5.43;;
1779;SDS011;10019;46.670;14.260;2022-08-03T09:24:54;5.67;;;5.17;;
1779;SDS011;10019;46.670;14.260;2022-08-03T09:27:26;5.27;;;4.87;;
1779;SDS011;10019;46.670;14.260;2022-08-03T09:29:58;5.90;;;5.40;;
1779;SDS011;10019;46.670;14.260;2022-08-03T09:32:30;5.93;;;5.43;;
1779;SDS011;10019;46.670;14.260;2022-08-03T09:35:02;4.87;;;4.43;;
1779;SDS011;10019;46.670;14.260;2022-08-03T09:37:34;5.03;;;4.63;;
1779;SDS011;10019;46.670;14.260;2022-08-03T09:40:08;4.83;;;4.43;;
1779;SDS011;10019;46.670;14.260;2022-08-03T09:42:42;5.03;;;4.63;;
1779;SDS011;10019;46.670;14.260;2022-08-03T09:45:26;5.07;;;4.60;;
1779;SDS011;10019;46.670;14.260;2022-08-03T09:48:04;4.97;;;4.33;;
1779;SDS011;10019;46.670;14.260;2022-08-03T09:50:50;4.27;;;3.97;;
1779;SDS011;10019;46.670;14.260;2022-08-03T09:53:23;4.70;;;4.10;;
1779;SDS011;10019;46.670;14.260;2022-08-03T09:55:57;4.60;;;4.20;;
1779;SDS011;10019;46.670;14.260;2022-08-03T09:58:30;4.30;;;4.00;;
1779;SDS011;10019;46.670;14.260;2022-08-03T10:01:02;4.30;;;4.00;;
1779;SDS011;10019;46.670;14.260;2022-08-03T10:03:36;3.77;;;3.47;;
1779;SDS011;10019;46.670;14.260;2022-08-03T10:06:14;4.30;;;3.90;;
1779;SDS011;10019;46.670;14.260;2022-08-03T10:08:49;4.50;;;4.20;;
1779;SDS011;10019;46.670;14.260;2022-08-03T10:11:37;4.20;;;3.90;;
1779;SDS011;10019;46.670;14.260;2022-08-03T10:14:10;3.90;;;3.60;;
1779;SDS011;10019;46.670;14.260;2022-08-03T10:16:48;4.83;;;4.00;;
1779;SDS011;10019;46.670;14.260;2022-08-03T10:19:20;5.10;;;3.30;;
1779;SDS011;10019;46.670;14.260;2022-08-03T10:21:52;4.30;;;3.90;;
1779;SDS011;10019;46.670;14.260;2022-08-03T10:24:27;3.90;;;3.60;;
1779;SDS011;10019;46.670;14.260;2022-08-03T10:27:02;3.90;;;3.60;;
1779;SDS011;10019;46.670;14.260;2022-08-03T10:29:36;3.50;;;3.20;;
1779;SDS011;10019;46.670;14.260;2022-08-03T10:32:09;4.00;;;3.47;;
1779;SDS011;10019;46.670;14.260;2022-08-03T10:34:44;3.70;;;3.40;;
1779;SDS011;10019;46.670;14.260;2022-08-03T10:37:17;4.40;;;3.40;;
1779;SDS011;10019;46.670;14.260;2022-08-03T10:39:50;3.83;;;3.53;;
1779;SDS011;10019;46.670;14.260;2022-08-03T10:42:27;3.53;;;3.23;;
1779;SDS011;10019;46.670;14.260;2022-08-03T10:45:02;5.00;;;3.40;;
1779;SDS011;10019;46.670;14.260;2022-08-03T10:47:35;3.40;;;2.80;;
1779;SDS011;10019;46.670;14.260;2022-08-03T10:50:07;3.50;;;3.20;;
1779;SDS011;10019;46.670;14.260;2022-08-03T10:55:31;4.37;;;3.97;;
1779;SDS011;10019;46.670;14.260;2022-08-03T11:04:20;3.70;;;3.40;;
1779;SDS011;10019;46.670;14.260;2022-08-03T11:09:49;3.97;;;3.67;;
1779;SDS011;10019;46.670;14.260;2022-08-03T11:12:22;4.17;;;3.87;;
1779;SDS011;10019;46.670;14.260;2022-08-03T11:14:56;4.93;;;3.60;;
1779;SDS011;10019;46.670;14.260;2022-08-03T11:17:30;3.97;;;3.60;;
1779;SDS011;10019;46.670;14.260;2022-08-03T11:20:03;3.73;;;3.43;;
1779;SDS011;10019;46.670;14.260;2022-08-03T11:22:47;3.80;;;3.50;;
1779;SDS011;10019;46.670;14.260;2022-08-03T11:25:19;4.23;;;3.90;;
1779;SDS011;10019;46.670;14.260;2022-08-03T11:28:02;4.00;;;3.60;;
1779;SDS011;10019;46.670;14.260;2022-08-03T11:31:03;4.00;;;3.70;;
1779;SDS011;10019;46.670;14.260;2022-08-03T11:34:17;4.00;;;3.70;;
1779;SDS011;10019;46.670;14.260;2022-08-03T11:39:54;3.97;;;3.67;;
1779;SDS011;10019;46.670;14.260;2022-08-03T11:42:39;3.70;;;3.40;;
1779;SDS011;10019;46.670;14.260;2022-08-03T11:45:20;3.87;;;3.57;;
1779;SDS011;10019;46.670;14.260;2022-08-03T11:47:53;4.00;;;3.40;;
1779;SDS011;10019;46.670;14.260;2022-08-03T11:50:32;3.37;;;3.17;;
1779;SDS011;10019;46.670;14.260;2022-08-03T11:53:06;3.37;;;3.13;;
1779;SDS011;10019;46.670;14.260;2022-08-03T11:55:38;3.87;;;3.50;;
1779;SDS011;10019;46.670;14.260;2022-08-03T11:58:16;3.57;;;3.27;;
1779;SDS011;10019;46.670;14.260;2022-08-03T12:00:48;3.50;;;3.20;;
1779;SDS011;10019;46.670;14.260;2022-08-03T12:03:22;3.93;;;3.53;;
1779;SDS011;10019;46.670;14.260;2022-08-03T12:05:54;3.83;;;3.53;;
1779;SDS011;10019;46.670;14.260;2022-08-03T12:08:29;3.03;;;2.83;;
1779;SDS011;10019;46.670;14.260;2022-08-03T12:11:02;3.50;;;3.20;;
1779;SDS011;10019;46.670;14.260;2022-08-03T12:13:36;3.57;;;3.27;;
1779;SDS011;10019;46.670;14.260;2022-08-03T12:16:09;2.87;;;2.67;;
1779;SDS011;10019;46.670;14.260;2022-08-03T12:18:42;2.70;;;2.50;;
1779;SDS011;10019;46.670;14.260;2022-08-03T12:21:14;3.33;;;2.60;;
1779;SDS011;10019;46.670;14.260;2022-08-03T12:23:47;2.63;;;2.43;;
1779;SDS011;10019;46.670;14.260;2022-08-03T12:26:19;2.37;;;2.17;;
1779;SDS011;10019;46.670;14.260;2022-08-03T12:28:51;3.30;;;2.10;;
1779;SDS011;10019;46.670;14.260;2022-08-03T12:31:22;2.60;;;2.40;;
1779;SDS011;10019;46.670;14.260;2022-08-03T12:33:57;2.93;;;2.73;;
1779;SDS011;10019;46.670;14.260;2022-08-03T12:36:29;2.83;;;2.63;;
1779;SDS011;10019;46.670;14.260;2022-08-03T12:39:02;2.60;;;2.27;;
1779;SDS011;10019;46.670;14.260;2022-08-03T12:41:35;2.60;;;2.40;;
1779;SDS011;10019;46.670;14.260;2022-08-03T12:44:08;2.70;;;2.50;;
1779;SDS011;10019;46.670;14.260;2022-08-03T12:46:40;2.90;;;2.70;;
1779;SDS011;10019;46.670;14.260;2022-08-03T12:49:13;3.03;;;2.83;;
1779;SDS011;10019;46.670;14.260;2022-08-03T12:51:57;2.73;;;2.53;;
1779;SDS011;10019;46.670;14.260;2022-08-03T12:54:29;2.93;;;2.73;;
1779;SDS011;10019;46.670;14.260;2022-08-03T12:57:03;2.77;;;2.57;;
1779;SDS011;10019;46.670;14.260;2022-08-03T12:59:36;3.30;;;3.00;;
1779;SDS011;10019;46.670;14.260;2022-08-03T13:02:14;3.80;;;2.60;;
1779;SDS011;10019;46.670;14.260;2022-08-03T13:04:48;3.00;;;2.50;;
1779;SDS011;10019;46.670;14.260;2022-08-03T13:07:20;3.60;;;2.80;;
1779;SDS011;10019;46.670;14.260;2022-08-03T13:09:53;2.57;;;2.37;;
1779;SDS011;10019;46.670;14.260;2022-08-03T13:12:26;2.60;;;2.40;;
1779;SDS011;10019;46.670;14.260;2022-08-03T13:14:59;2.60;;;2.40;;
1779;SDS011;10019;46.670;14.260;2022-08-03T13:17:31;2.63;;;2.43;;
1779;SDS011;10019;46.670;14.260;2022-08-03T13:20:04;2.77;;;2.57;;
1779;SDS011;10019;46.670;14.260;2022-08-03T13:22:37;3.33;;;2.57;;
1779;SDS011;10019;46.670;14.260;2022-08-03T13:25:08;5.43;;;2.90;;
1779;SDS011;10019;46.670;14.260;2022-08-03T13:27:40;2.70;;;2.50;;
1779;SDS011;10019;46.670;14.260;2022-08-03T13:30:12;2.53;;;2.33;;
1779;SDS011;10019;46.670;14.260;2022-08-03T13:32:44;2.77;;;2.57;;
1779;SDS011;10019;46.670;14.260;2022-08-03T13:35:17;2.73;;;2.53;;
1779;SDS011;10019;46.670;14.260;2022-08-03T13:37:49;2.37;;;2.17;;
1779;SDS011;10019;46.670;14.260;2022-08-03T13:40:21;3.87;;;2.77;;
1779;SDS011;10019;46.670;14.260;2022-08-03T13:42:52;2.53;;;2.33;;
1779;SDS011;10019;46.670;14.260;2022-08-03T13:45:24;2.63;;;2.43;;
1779;SDS011;10019;46.670;14.260;2022-08-03T13:47:56;2.70;;;2.50;;
1779;SDS011;10019;46.670;14.260;2022-08-03T13:50:29;2.60;;;2.40;;
1779;SDS011;10019;46.670;14.260;2022-08-03T13:53:01;2.53;;;2.33;;
1779;SDS011;10019;46.670;14.260;2022-08-03T13:55:33;2.83;;;2.10;;
1779;SDS011;10019;46.670;14.260;2022-08-03T13:58:04;2.50;;;2.30;;
1779;SDS011;10019;46.670;14.260;2022-08-03T14:00:37;2.20;;;2.00;;
1779;SDS011;10019;46.670;14.260;2022-08-03T14:03:09;2.40;;;2.20;;
1779;SDS011;10019;46.670;14.260;2022-08-03T14:05:42;2.57;;;2.37;;
1779;SDS011;10019;46.670;14.260;2022-08-03T14:08:14;2.40;;;2.20;;
1779;SDS011;10019;46.670;14.260;2022-08-03T14:10:46;2.47;;;2.27;;
1779;SDS011;10019;46.670;14.260;2022-08-03T14:13:17;4.17;;;2.60;;
1779;SDS011;10019;46.670;14.260;2022-08-03T14:15:49;2.40;;;2.20;;
1779;SDS011;10019;46.670;14.260;2022-08-03T14:18:21;2.37;;;2.17;;
1779;SDS011;10019;46.670;14.260;2022-08-03T14:20:54;2.60;;;2.40;;
1779;SDS011;10019;46.670;14.260;2022-08-03T14:23:26;2.20;;;2.00;;
1779;SDS011;10019;46.670;14.260;2022-08-03T14:25:57;2.30;;;2.10;;
1779;SDS011;10019;46.670;14.260;2022-08-03T14:28:29;2.30;;;2.10;;
1779;SDS011;10019;46.670;14.260;2022-08-03T14:31:01;2.50;;;2.30;;
1779;SDS011;10019;46.670;14.260;2022-08-03T14:33:32;2.47;;;2.27;;
1779;SDS011;10019;46.670;14.260;2022-08-03T14:36:06;3.50;;;2.97;;
1779;SDS011;10019;46.670;14.260;2022-08-03T14:38:38;2.63;;;2.43;;
1779;SDS011;10019;46.670;14.260;2022-08-03T14:41:09;3.10;;;2.47;;
1779;SDS011;10019;46.670;14.260;2022-08-03T14:43:41;2.60;;;2.40;;
1779;SDS011;10019;46.670;14.260;2022-08-03T14:46:13;2.80;;;2.60;;
1779;SDS011;10019;46.670;14.260;2022-08-03T14:48:44;2.43;;;2.23;;
1779;SDS011;10019;46.670;14.260;2022-08-03T14:51:17;2.43;;;2.23;;
1779;SDS011;10019;46.670;14.260;2022-08-03T14:53:49;2.30;;;2.10;;
1779;SDS011;10019;46.670;14.260;2022-08-03T14:56:21;2.50;;;2.30;;
1779;SDS011;10019;46.670;14.260;2022-08-03T14:58:52;4.40;;;2.60;;
1779;SDS011;10019;46.670;14.260;2022-08-03T15:01:24;2.70;;;2.50;;
1779;SDS011;10019;46.670;14.260;2022-08-03T15:03:56;3.20;;;2.90;;
1779;SDS011;10019;46.670;14.260;2022-08-03T15:06:29;2.30;;;2.10;;
1779;SDS011;10019;46.670;14.260;2022-08-03T15:09:00;2.70;;;2.50;;
1779;SDS011;10019;46.670;14.260;2022-08-03T15:11:32;3.13;;;2.37;;
1779;SDS011;10019;46.670;14.260;2022-08-03T15:14:04;2.13;;;2.00;;
1779;SDS011;10019;46.670;14.260;2022-08-03T15:16:35;2.60;;;2.40;;
1779;SDS011;10019;46.670;14.260;2022-08-03T15:19:07;2.43;;;2.23;;
1779;SDS011;10019;46.670;14.260;2022-08-03T15:21:40;2.60;;;2.40;;
1779;SDS011;10019;46.670;14.260;2022-08-03T15:24:12;2.70;;;2.50;;
1779;SDS011;10019;46.670;14.260;2022-08-03T15:26:44;2.80;;;2.60;;
1779;SDS011;10019;46.670;14.260;2022-08-03T15:29:15;2.57;;;2.10;;
1779;SDS011;10019;46.670;14.260;2022-08-03T15:31:47;2.70;;;2.50;;
1779;SDS011;10019;46.670;14.260;2022-08-03T15:34:19;2.43;;;2.23;;
1779;SDS011;10019;46.670;14.260;2022-08-03T15:36:52;5.67;;;2.37;;
1779;SDS011;10019;46.670;14.260;2022-08-03T15:39:23;2.27;;;2.07;;